Time;durP1;ratioP1;P1;durP2;ratioP2;P2;SDS_P1;SDS_P2;PMS_P1;PMS_P2;Temp;Humidity;BMP_temperature;BMP_pressure;BME280_temperature;BME280_humidity;BME280_pressure;Samples;Min_cycle;Max_cycle;Signal;HPM_P1;HPM_P2
2023/08/08 00:07:13;;;;;;;11.00;4.50;;;28.20;31.70;;;;;;20843927;28;19964;-58
2023/08/08 00:17:14;;;;;;;;;;;28.40;31.80;;;;;;20843714;28;20128;-58
2023/08/08 00:27:14;;;;;;;11.55;4.30;;;28.40;31.30;;;;;;20841168;28;20413;-58
2023/08/08 00:37:15;;;;;;;;;;;28.60;30.90;;;;;;20839449;28;20084;-58
2023/08/08 00:47:16;;;;;;;11.10;3.47;;;28.60;30.70;;;;;;20840025;28;19983;-55
2023/08/08 00:57:17;;;;;;;;;;;28.50;30.60;;;;;;20839303;28;20124;-58
2023/08/08 01:07:36;;;;;;;7.70;3.63;;;28.40;30.90;;;;;;20838333;28;20008;-57
2023/08/08 01:17:37;;;;;;;27.85;16.80;;;28.50;31.10;;;;;;20836148;28;20057;-57
2023/08/08 01:27:37;;;;;;;;;;;28.40;32.30;;;;;;20836508;28;20133;-57
2023/08/08 01:37:52;;;;;;;7.80;3.90;;;28.40;33.00;;;;;;20835245;28;19921;-57
2023/08/08 01:47:53;;;;;;;11.80;3.47;;;28.30;33.40;;;;;;20833725;28;20045;-56
2023/08/08 01:57:54;;;;;;;7.80;2.83;;;28.00;34.00;;;;;;20834166;28;20045;-57
2023/08/08 02:07:55;;;;;;;8.43;3.05;;;27.40;33.90;;;;;;20833603;28;20132;-58
2023/08/08 02:17:56;;;;;;;9.40;2.78;;;27.00;34.10;;;;;;20832559;28;20120;-57
2023/08/08 02:27:57;;;;;;;6.60;2.50;;;26.70;34.50;;;;;;20830951;28;20160;-59
2023/08/08 02:37:58;;;;;;;10.38;2.55;;;26.60;35.00;;;;;;20831452;28;20479;-59
2023/08/08 02:47:58;;;;;;;5.07;2.57;;;26.60;35.50;;;;;;20830248;28;20104;-59
2023/08/08 02:57:59;;;;;;;9.60;2.53;;;26.50;35.50;;;;;;20830215;28;20045;-58
2023/08/08 03:08:00;;;;;;;7.60;3.03;;;26.60;34.90;;;;;;20829749;28;20056;-57
2023/08/08 03:18:01;;;;;;;7.07;1.80;;;26.40;34.70;;;;;;20828338;28;20137;-57
2023/08/08 03:28:01;;;;;;;4.07;1.90;;;26.60;34.10;;;;;;20828252;28;20085;-56
2023/08/08 03:38:02;;;;;;;7.60;1.87;;;26.70;33.30;;;;;;20828747;28;20038;-57
2023/08/08 03:48:03;;;;;;;6.17;2.17;;;26.60;32.30;;;;;;20828583;28;20056;-57
2023/08/08 03:58:05;;;;;;;5.13;1.57;;;26.40;31.80;;;;;;20833491;28;20107;-58
2023/08/08 04:08:06;;;;;;;5.50;1.80;;;26.40;32.00;;;;;;20841646;28;20045;-56
2023/08/08 04:18:06;;;;;;;3.87;1.53;;;26.40;31.50;;;;;;20842180;28;20056;-58
2023/08/08 04:28:07;;;;;;;3.97;1.57;;;26.20;31.00;;;;;;20840960;28;20054;-57
2023/08/08 04:38:08;;;;;;;3.57;1.97;;;26.20;30.80;;;;;;20840780;28;20056;-57
2023/08/08 04:48:09;;;;;;;3.37;1.60;;;26.10;30.80;;;;;;20839831;28;20468;-57
2023/08/08 04:58:10;;;;;;;5.00;1.83;;;26.10;30.70;;;;;;20838990;28;20356;-57
2023/08/08 05:08:11;;;;;;;7.47;2.10;;;26.10;30.90;;;;;;20837612;28;20120;-58
2023/08/08 05:18:12;;;;;;;6.45;1.73;;;26.00;31.10;;;;;;20837644;28;20049;-58
2023/08/08 05:28:13;;;;;;;8.30;2.27;;;26.00;31.50;;;;;;20836147;28;20100;-58
2023/08/08 05:38:14;;;;;;;5.33;2.03;;;25.90;31.70;;;;;;20834422;28;20045;-57
2023/08/08 05:48:14;;;;;;;5.90;2.40;;;25.80;31.90;;;;;;20835485;28;20506;-57
2023/08/08 05:58:15;;;;;;;5.60;2.30;;;25.80;32.70;;;;;;20834962;28;20041;-57
2023/08/08 06:08:16;;;;;;;10.67;2.13;;;25.70;33.20;;;;;;20832332;28;20041;-57
2023/08/08 06:18:17;;;;;;;9.03;2.50;;;25.70;33.30;;;;;;20832506;28;20128;-57
2023/08/08 06:28:18;;;;;;;8.97;2.27;;;25.70;34.00;;;;;;20831774;28;20057;-57
2023/08/08 06:38:19;;;;;;;8.13;2.17;;;25.80;34.80;;;;;;20831795;28;20056;-59
2023/08/08 06:48:19;;;;;;;8.60;2.83;;;25.80;35.20;;;;;;20829953;28;20045;-57
2023/08/08 06:58:20;;;;;;;12.03;3.30;;;26.10;35.50;;;;;;20829408;28;20521;-57
2023/08/08 07:08:21;;;;;;;10.97;2.43;;;26.50;35.90;;;;;;20828758;28;20156;-57
2023/08/08 07:18:22;;;;;;;7.45;2.50;;;26.80;36.30;;;;;;20828272;28;20056;-57
2023/08/08 07:28:23;;;;;;;8.73;3.27;;;27.10;37.30;;;;;;20828497;28;20511;-57
2023/08/08 07:38:23;;;;;;;8.10;2.30;;;27.40;38.00;;;;;;20843154;28;20103;-57
2023/08/08 07:48:24;;;;;;;9.90;2.53;;;27.60;38.70;;;;;;20844295;28;20073;-58
2023/08/08 07:58:26;;;;;;;11.83;3.07;;;27.90;40.20;;;;;;20844073;28;20064;-57
2023/08/08 08:08:27;;;;;;;10.50;3.03;;;28.10;40.60;;;;;;20842165;28;20294;-56
2023/08/08 08:18:28;;;;;;;;;;;28.40;42.00;;;;;;20842872;28;20559;-57
2023/08/08 08:28:29;;;;;;;5.83;2.33;;;28.40;42.30;;;;;;20840362;28;19920;-58
2023/08/08 08:38:30;;;;;;;11.07;3.20;;;28.80;44.30;;;;;;20839822;28;20524;-57
2023/08/08 08:48:31;;;;;;;12.40;4.03;;;28.80;44.80;;;;;;20837216;28;20051;-58
2023/08/08 08:58:32;;;;;;;12.43;3.58;;;29.10;44.20;;;;;;20838109;28;20041;-57
2023/08/08 09:08:32;;;;;;;10.57;3.92;;;29.40;43.80;;;;;;20838170;28;20052;-57
2023/08/08 09:18:33;;;;;;;7.70;2.95;;;29.60;43.50;;;;;;20837329;28;20045;-58
2023/08/08 09:28:34;;;;;;;10.50;3.55;;;29.80;41.80;;;;;;20836853;28;20359;-57
2023/08/08 09:38:35;;;;;;;8.88;3.22;;;29.90;42.30;;;;;;20835774;28;20391;-58
2023/08/08 09:48:38;;;;;;;14.63;3.90;;;29.70;42.70;;;;;;20835128;28;20045;-56
2023/08/08 09:58:40;;;;;;;13.30;3.25;;;30.20;43.00;;;;;;20833674;28;20125;-58
2023/08/08 10:08:41;;;;;;;12.52;3.58;;;30.20;43.40;;;;;;20832206;28;20081;-58
2023/08/08 10:18:42;;;;;;;15.43;5.63;;;30.50;42.80;;;;;;20831517;28;20125;-57
2023/08/08 10:28:56;;;;;;;11.48;3.58;;;30.80;41.80;;;;;;20829945;28;20095;-60
2023/08/08 10:38:58;;;;;;;14.32;4.50;;;30.90;41.50;;;;;;20828860;28;20045;-62
2023/08/08 10:49:02;;;;;;;37.53;10.25;;;30.80;42.60;;;;;;20829421;28;20046;-57
2023/08/08 10:59:15;;;;;;;13.98;4.03;;;31.10;49.80;;;;;;20828114;28;20053;-57
2023/08/08 11:09:17;;;;;;;13.52;4.10;;;31.30;44.50;;;;;;20829607;28;20068;-57
2023/08/08 11:19:22;;;;;;;15.02;4.63;;;31.20;43.20;;;;;;20829070;28;20602;-57
2023/08/08 11:29:28;;;;;;;7.95;3.05;;;31.40;42.40;;;;;;20829118;28;20052;-58
2023/08/08 11:39:29;;;;;;;14.07;3.35;;;31.80;41.10;;;;;;20829441;28;20550;-57
2023/08/08 11:49:30;;;;;;;12.73;3.75;;;32.00;39.60;;;;;;20828007;28;20095;-57
2023/08/08 11:59:31;;;;;;;11.15;3.95;;;32.10;40.50;;;;;;20827305;28;20045;-58
2023/08/08 12:09:32;;;;;;;8.68;3.33;;;32.40;39.50;;;;;;20828252;28;20172;-57
2023/08/08 12:19:33;;;;;;;12.40;3.47;;;32.60;38.60;;;;;;20832308;28;20129;-56
2023/08/08 12:29:34;;;;;;;14.27;3.65;;;32.80;36.30;;;;;;20841103;28;20510;-60
2023/08/08 12:39:35;;;;;;;11.48;3.25;;;33.00;34.70;;;;;;20840961;28;20045;-57
2023/08/08 12:49:36;;;;;;;12.38;3.70;;;33.40;34.40;;;;;;20841399;28;20522;-58
2023/08/08 12:59:37;;;;;;;13.43;3.38;;;33.60;33.50;;;;;;20840442;28;20089;-59
2023/08/08 13:09:38;;;;;;;13.88;3.53;;;34.00;32.40;;;;;;20839158;28;20407;-58
2023/08/08 13:19:40;;;;;;;13.75;3.53;;;34.20;32.20;;;;;;20838465;28;20558;-58
2023/08/08 13:29:40;;;;;;;28.10;17.17;;;34.40;32.40;;;;;;20835907;28;20052;-60
2023/08/08 13:39:41;;;;;;;8.50;3.40;;;34.60;32.70;;;;;;20836947;28;20049;-58
2023/08/08 13:49:42;;;;;;;8.27;3.00;;;34.90;31.20;;;;;;20836416;28;20049;-57
2023/08/08 13:59:43;;;;;;;10.63;3.17;;;35.10;28.40;;;;;;20834376;28;20064;-56
2023/08/08 14:09:44;;;;;;;8.07;3.35;;;35.50;28.30;;;;;;20834397;28;20098;-59
2023/08/08 14:19:44;;;;;;;7.68;2.72;;;35.70;26.30;;;;;;20834041;28;20517;-58
2023/08/08 14:29:45;;;;;;;7.15;2.85;;;35.70;27.00;;;;;;20831676;28;20479;-58
2023/08/08 14:39:46;;;;;;;11.00;2.90;;;36.10;26.50;;;;;;20830834;28;20045;-56
2023/08/08 14:49:47;;;;;;;11.53;3.33;;;36.30;26.00;;;;;;20831769;28;20330;-58
2023/08/08 14:59:47;;;;;;;8.65;2.97;;;36.30;24.40;;;;;;20831329;28;20298;-57
2023/08/08 15:09:48;;;;;;;7.50;2.70;;;36.50;24.20;;;;;;20831192;28;20112;-56
2023/08/08 15:19:49;;;;;;;10.07;3.30;;;36.60;23.40;;;;;;20830470;28;20073;-58
2023/08/08 15:29:50;;;;;;;9.43;2.92;;;36.60;24.60;;;;;;20828032;28;20111;-59
2023/08/08 15:39:50;;;;;;;11.15;3.22;;;37.00;23.80;;;;;;20828325;28;20494;-58
2023/08/08 15:49:51;;;;;;;10.30;3.30;;;36.70;24.20;;;;;;20829235;28;20048;-58
2023/08/08 15:59:52;;;;;;;12.23;3.13;;;37.00;23.50;;;;;;20842593;28;20279;-57
2023/08/08 16:09:53;;;;;;;13.63;4.13;;;37.10;22.80;;;;;;20844460;28;20041;-60
2023/08/08 16:19:53;;;;;;;11.00;2.60;;;37.00;23.30;;;;;;20843496;28;20045;-57
2023/08/08 16:29:54;;;;;;;12.10;3.38;;;37.10;22.90;;;;;;20842293;28;20517;-57
2023/08/08 16:39:55;;;;;;;10.32;5.15;;;37.00;23.10;;;;;;20841736;28;20053;-56
2023/08/08 16:49:56;;;;;;;14.98;4.05;;;37.10;22.00;;;;;;20839098;28;20042;-57
2023/08/08 16:59:57;;;;;;;11.45;2.85;;;37.00;21.70;;;;;;20840222;28;20525;-57
2023/08/08 17:09:58;;;;;;;12.50;3.38;;;37.10;21.30;;;;;;20838176;28;20041;-57
2023/08/08 17:20:00;;;;;;;9.40;3.70;;;37.10;21.10;;;;;;20837433;28;20106;-57
2023/08/08 17:30:01;;;;;;;11.00;2.80;;;37.00;21.50;;;;;;20837036;28;20064;-58
2023/08/08 17:40:02;;;;;;;10.90;3.30;;;37.10;21.80;;;;;;20836975;28;20041;-57
2023/08/08 17:50:03;;;;;;;9.18;3.42;;;36.80;22.30;;;;;;20836421;28;20077;-57
2023/08/08 18:00:04;;;;;;;12.88;3.80;;;36.80;22.10;;;;;;20835203;28;20098;-58
2023/08/08 18:10:06;;;;;;;11.75;3.67;;;36.60;22.30;;;;;;20834169;28;20073;-56
2023/08/08 18:20:08;;;;;;;15.85;5.50;;;36.60;21.90;;;;;;20831968;28;20054;-56
2023/08/08 18:30:10;;;;;;;10.85;4.18;;;36.40;22.20;;;;;;20834206;28;20085;-56
2023/08/08 18:40:11;;;;;;;13.10;4.07;;;36.10;22.60;;;;;;20833179;28;20046;-57
2023/08/08 18:50:12;;;;;;;11.98;4.20;;;35.90;22.30;;;;;;20832342;28;20092;-57
2023/08/08 19:00:13;;;;;;;10.25;4.05;;;35.70;22.10;;;;;;20831206;28;20045;-57
2023/08/08 19:10:15;;;;;;;13.10;4.78;;;35.50;22.20;;;;;;20831108;28;20056;-57
2023/08/08 19:20:16;;;;;;;12.00;4.65;;;35.30;22.30;;;;;;20830219;28;20060;-56
2023/08/08 19:30:16;;;;;;;14.63;4.95;;;35.00;22.30;;;;;;20836615;28;20085;-56
2023/08/08 19:40:17;;;;;;;10.70;4.90;;;34.70;22.30;;;;;;20846464;28;20045;-57
2023/08/08 19:50:18;;;;;;;14.60;4.45;;;34.60;22.50;;;;;;20845769;28;20132;-58
2023/08/08 20:00:20;;;;;;;17.85;6.43;;;34.30;22.90;;;;;;20843892;28;20128;-59
2023/08/08 20:10:21;;;;;;;15.80;5.88;;;34.10;23.40;;;;;;20842973;28;20045;-57
2023/08/08 20:20:22;;;;;;;14.63;4.97;;;33.90;23.70;;;;;;20843432;28;20045;-58
2023/08/08 20:30:23;;;;;;;15.85;7.05;;;33.80;23.60;;;;;;20842176;28;20460;-57
2023/08/08 20:40:24;;;;;;;12.27;4.68;;;33.70;23.80;;;;;;20842111;28;20076;-57
2023/08/08 20:50:25;;;;;;;12.68;4.53;;;33.60;24.00;;;;;;20841121;28;20052;-58
2023/08/08 21:00:26;;;;;;;13.70;4.20;;;33.50;24.00;;;;;;20840234;28;20049;-57
2023/08/08 21:10:27;;;;;;;10.25;5.13;;;33.40;24.40;;;;;;20839375;28;20049;-57
2023/08/08 21:20:27;;;;;;;12.38;5.18;;;33.20;24.50;;;;;;20838493;28;20057;-57
2023/08/08 21:30:28;;;;;;;12.73;4.82;;;33.20;24.20;;;;;;20836867;28;20475;-57
2023/08/08 21:40:29;;;;;;;14.48;4.82;;;33.00;24.10;;;;;;20836513;28;20048;-58
2023/08/08 21:50:29;;;;;;;13.07;5.10;;;32.80;24.90;;;;;;20835124;28;20171;-56
2023/08/08 22:00:30;;;;;;;14.85;6.82;;;32.60;25.80;;;;;;20834868;28;20076;-58
2023/08/08 22:10:33;;;;;;;13.50;4.82;;;32.20;26.00;;;;;;20832920;28;20048;-57
2023/08/08 22:20:34;;;;;;;15.07;6.10;;;32.00;26.70;;;;;;20833516;28;20603;-56
2023/08/08 22:30:34;;;;;;;14.65;4.40;;;31.70;28.20;;;;;;20831374;28;20152;-57
2023/08/08 22:40:35;;;;;;;11.30;4.47;;;31.50;28.40;;;;;;20832111;28;20056;-58
2023/08/08 22:50:40;;;;;;;10.98;4.90;;;31.30;28.70;;;;;;20831676;28;20117;-57
2023/08/08 23:00:41;;;;;;;16.52;6.57;;;31.10;29.30;;;;;;20830215;28;20121;-57
2023/08/08 23:10:42;;;;;;;14.20;8.20;;;31.10;29.50;;;;;;20830411;28;20084;-57
2023/08/08 23:20:43;;;;;;;16.17;5.50;;;31.00;29.70;;;;;;20828921;28;20052;-56
2023/08/08 23:30:44;;;;;;;15.73;6.20;;;30.90;30.00;;;;;;20829451;28;20113;-57
2023/08/08 23:40:45;;;;;;;15.40;5.45;;;30.80;30.20;;;;;;20829688;28;20103;-56
2023/08/08 23:50:46;;;;;;;13.55;5.50;;;30.60;30.60;;;;;;20829197;28;20042;-57
